Terminal Aerodrome Forecast
Issued by NWS Paducah, KY

Home | Current Version | Previous Version | Graphics & Text | Print | Product List | Glossary On
Versions: 1 2 3 4 5 6 7 8 9 10 11 12
000
FTUS43 KPAH 261100
TAFEVV
TAF
KEVV 261120Z 2612/2712 18004KT P6SM SCT250
     FM261500 19010G15KT P6SM SCT050 BKN250
     FM270000 17005KT P6SM SCT040 BKN150
     FM270500 17005KT P6SM OVC040=

USA.gov is the U.S. government's official web portal to all federal, state and local government web resources and services.